DW4300 Weather Reports


Display with metric or nautical units.
time (UTC)temp
F
wind
direction
speed
MPH
gust
MPH
rain 1hr
in
rain 24hr
in
rain mn
in
humidity
%
barometer
mb
20180620020456 74 0 0.0 0.0 0.03 0.03 0.03 90 1013.7
20180620015953 74 0 0.0 0.0 0.02 0.02 0.02 90 1013.6
20180620015453 74 0 0.0 0.0 0.00 0.00 0.00 90 1013.4
20180620014955 74 5 1.0 8.0 0.00 0.00 0.00 89 1013.4
20180620014453 74 1 4.0 10.0 0.00 0.00 0.00 89 1013.6
20180620013953 74 3 8.0 13.0 0.00 0.00 0.00 88 1012.3
20180620013455 74 1 8.0 13.0 0.00 0.00 0.00 88 1012.5
20180620012953 74 350 8.0 12.0 0.00 0.00 0.00 87 1012.6
20180620012454 75 349 9.0 18.0 0.00 0.00 0.00 87 1012.3
20180620011955 75 358 10.0 18.0 0.00 0.00 0.00 86 1012.2
20180620011453 75 3 10.0 17.0 0.00 0.00 0.00 85 1012.4
20180620010954 76 10 11.0 17.0 0.00 0.00 0.00 84 1012.7
20180620010455 76 15 12.0 19.0 0.00 0.00 0.00 83 1013.0
20180620005953 77 350 13.0 21.0 0.00 0.00 0.00 82 1012.9
20180620005453 78 326 14.0 23.0 0.00 0.00 0.00 81 1012.8
20180620004955 80 324 10.0 23.0 0.00 0.00 0.00 77 1012.2
20180620004454 84 329 3.0 16.0 0.00 0.00 0.00 70 1011.6
20180620003953 85 197 0.0 5.0 0.00 0.00 0.00 68 1010.7
20180620003455 85 188 1.0 6.0 0.00 0.00 0.00 68 1010.6
20180620002953 85 187 1.0 6.0 0.00 0.00 0.00 68 1010.6
20180620002454 86 192 2.0 6.0 0.00 0.00 0.00 68 1010.6
20180620001955 86 195 2.0 8.0 0.00 0.00 0.00 67 1010.5
20180620001454 86 199 1.0 8.0 0.00 0.00 0.00 67 1010.5
20180620000953 86 200 1.0 6.0 0.00 0.00 0.00 67 1010.5
20180620000455 87 199 1.0 5.0 0.00 0.00 0.00 66 1010.6
20180619235953 87 196 1.0 7.0 0.00 0.00 0.00 65 1010.6
20180619235453 87 198 2.0 8.0 0.00 0.00 0.00 65 1010.4
20180619234954 87 201 2.0 9.0 0.00 0.00 0.00 65 1010.5
20180619234453 87 199 2.0 9.0 0.00 0.00 0.00 65 1010.5
20180619233953 87 198 3.0 7.0 0.00 0.00 0.00 66 1010.5
20180619233455 88 200 2.0 7.0 0.00 0.00 0.00 66 1010.5
20180619232953 88 209 0.0 5.0 0.00 0.00 0.00 65 1010.7
20180619232453 88 200 0.0 6.0 0.00 0.00 0.00 64 1010.9
20180619231954 88 199 1.0 9.0 0.00 0.00 0.00 63 1011.0
20180619231454 89 197 2.0 11.0 0.00 0.00 0.00 63 1010.9
20180619230956 89 199 3.0 12.0 0.00 0.00 0.00 62 1010.7
20180619230454 89 204 3.0 12.0 0.00 0.00 0.00 62 1010.7
20180619225953 89 206 3.0 11.0 0.00 0.00 0.00 62 1010.8
20180619225454 90 206 4.0 13.0 0.00 0.00 0.00 62 1010.9
20180619224955 90 204 3.0 13.0 0.00 0.00 0.00 62 1011.1
20180619224453 90 202 1.0 7.0 0.00 0.00 0.00 64 1011.1
20180619223953 90 199 1.0 10.0 0.00 0.00 0.00 63 1011.2
20180619223455 90 193 1.0 10.0 0.00 0.00 0.00 64 1011.2
20180619222953 90 227 0.0 1.0 0.00 0.00 0.00 64 1011.1
20180619222453 90 200 1.0 10.0 0.00 0.00 0.00 65 1011.0
20180619221955 89 200 3.0 11.0 0.00 0.00 0.00 64 1010.9
20180619221454 89 199 4.0 11.0 0.00 0.00 0.00 64 1010.9
20180619220953 89 200 4.0 11.0 0.00 0.00 0.00 64 1010.8
20180619220456 89 201 3.0 11.0 0.00 0.00 0.00 64 1010.9
20180619215953 89 197 3.0 11.0 0.00 0.00 0.00 65 1011.0
20180619215454 89 196 2.0 10.0 0.00 0.00 0.00 68 1011.0
20180619214955 88 186 2.0 7.0 0.00 0.00 0.00 71 1011.0
20180619214453 88 183 2.0 7.0 0.00 0.00 0.00 70 1011.0
20180619213953 89 179 1.0 7.0 0.00 0.00 0.00 70 1011.1
20180619213455 88 173 1.0 9.0 0.00 0.00 0.00 70 1010.9
20180619212954 88 172 4.0 12.0 0.00 0.00 0.00 70 1011.0
20180619212453 88 173 6.0 12.0 0.00 0.00 0.00 70 1011.0
20180619211955 88 175 6.0 11.0 0.00 0.00 0.00 69 1011.0
20180619211453 88 184 6.0 14.0 0.00 0.00 0.00 69 1011.0
20180619210953 88 193 6.0 14.0 0.00 0.00 0.00 66 1011.1
20180619210455 89 199 5.0 11.0 0.00 0.00 0.00 63 1011.0
20180619205953 90 201 4.0 9.0 0.00 0.00 0.00 64 1011.1
20180619205454 90 207 3.0 9.0 0.00 0.00 0.00 63 1011.2
20180619204955 91 210 2.0 8.0 0.00 0.00 0.00 61 1011.3
20180619204453 91 205 3.0 10.0 0.00 0.00 0.00 63 1011.3
20180619203953 90 204 3.0 10.0 0.00 0.00 0.00 62 1011.2
20180619203455 90 206 2.0 8.0 0.00 0.00 0.00 64 1011.2
20180619202954 90 198 4.0 9.0 0.00 0.00 0.00 64 1011.2
20180619202453 89 197 5.0 10.0 0.00 0.00 0.00 64 1011.4
20180619201955 89 197 3.0 10.0 0.00 0.00 0.00 67 1011.6
20180619201453 89 195 4.0 9.0 0.00 0.00 0.00 65 1011.8
20180619200953 89 199 4.0 9.0 0.00 0.00 0.00 67 1011.9
20180619200454 89 200 2.0 8.0 0.00 0.00 0.00 66 1012.0
20180619195953 89 195 0.0 5.0 0.00 0.00 0.00 68 1012.2
20180619195454 88 208 1.0 9.0 0.00 0.00 0.00 67 1012.2
20180619194955 89 211 2.0 10.0 0.00 0.00 0.00 65 1012.2
20180619194453 89 208 2.0 10.0 0.00 0.00 0.00 66 1012.2
20180619193954 89 201 1.0 7.0 0.00 0.00 0.00 67 1012.2
20180619193455 90 202 1.0 7.0 0.00 0.00 0.00 65 1012.3
20180619192954 90 203 0.0 6.0 0.00 0.00 0.00 70 1012.4
20180619192453 89 201 0.0 6.0 0.00 0.00 0.00 67 1012.4
20180619191955 89 325 0.0 5.0 0.00 0.00 0.00 70 1012.4
20180619191453 88 326 0.0 5.0 0.00 0.00 0.00 68 1012.4
20180619190953 89 322 0.0 2.0 0.00 0.00 0.00 71 1012.4
20180619190456 89 0 0.0 0.0 0.00 0.00 0.00 70 1012.5
20180619185953 89 201 0.0 1.0 0.00 0.00 0.00 70 1012.6
20180619185453 88 187 2.0 7.0 0.00 0.00 0.00 69 1012.7
20180619184955 88 186 4.0 10.0 0.00 0.00 0.00 68 1012.8
20180619184453 88 188 3.0 10.0 0.00 0.00 0.00 68 1012.9
20180619183953 88 197 2.0 9.0 0.00 0.00 0.00 67 1013.0
20180619183455 88 191 4.0 12.0 0.00 0.00 0.00 66 1013.0
20180619182953 89 194 4.0 12.0 0.00 0.00 0.00 67 1013.1
20180619182453 88 196 3.0 11.0 0.00 0.00 0.00 68 1013.3
20180619181955 88 196 2.0 9.0 0.00 0.00 0.00 68 1013.3
20180619181454 89 204 1.0 9.0 0.00 0.00 0.00 67 1013.3
20180619180953 89 201 3.0 9.0 0.00 0.00 0.00 66 1013.4
20180619180455 90 203 2.0 8.0 0.00 0.00 0.00 67 1013.5
20180619175953 90 217 1.0 7.0 0.00 0.00 0.00 66 1013.5
20180619175453 90 217 1.0 7.0 0.00 0.00 0.00 66 1013.6
20180619174955 90 213 0.0 1.0 0.00 0.00 0.00 67 1013.7
20180619174454 90 213 0.0 1.0 0.00 0.00 0.00 67 1013.9
20180619173953 90 252 0.0 1.0 0.00 0.00 0.00 67 1014.1
20180619173455 89 222 0.0 6.0 0.00 0.00 0.00 68 1014.2
20180619172954 89 220 0.0 6.0 0.00 0.00 0.00 69 1014.3
20180619172453 89 204 0.0 5.0 0.00 0.00 0.00 68 1014.4
20180619171955 88 200 2.0 9.0 0.00 0.00 0.00 70 1014.5
20180619171453 88 197 4.0 9.0 0.00 0.00 0.00 69 1014.4
20180619170953 88 193 3.0 10.0 0.00 0.00 0.00 70 1014.6
20180619170455 88 193 1.0 10.0 0.00 0.00 0.00 69 1014.6
20180619165953 88 198 0.0 3.0 0.00 0.00 0.00 71 1014.6
20180619165453 88 200 1.0 7.0 0.00 0.00 0.00 72 1014.6
20180619164955 87 192 4.0 11.0 0.00 0.00 0.00 71 1014.6
20180619164453 87 192 4.0 11.0 0.00 0.00 0.00 71 1014.7
20180619163953 87 199 3.0 9.0 0.00 0.00 0.00 71 1014.6
20180619163455 87 199 3.0 9.0 0.00 0.00 0.00 72 1014.6
20180619162954 87 201 1.0 9.0 0.00 0.00 0.00 72 1014.7
20180619162453 87 200 1.0 9.0 0.00 0.00 0.00 71 1014.6
20180619161955 86 202 1.0 8.0 0.00 0.00 0.00 74 1014.6
20180619161453 86 203 2.0 8.0 0.00 0.00 0.00 72 1014.6
20180619160953 86 217 0.0 6.0 0.00 0.00 0.00 72 1014.6
20180619160455 86 199 1.0 9.0 0.00 0.00 0.00 73 1014.5
20180619155953 85 197 4.0 11.0 0.00 0.00 0.00 75 1014.6
20180619155453 85 200 3.0 11.0 0.00 0.00 0.00 75 1014.6
20180619154955 85 205 1.0 10.0 0.00 0.00 0.00 75 1014.6
20180619154453 85 200 1.0 10.0 0.00 0.00 0.00 75 1014.7
20180619153953 85 197 0.0 7.0 0.00 0.00 0.00 75 1014.7
20180619153454 85 200 1.0 8.0 0.00 0.00 0.00 77 1014.7
20180619152952 84 196 2.0 8.0 0.00 0.00 0.00 76 1014.8
20180619152453 85 202 3.0 8.0 0.00 0.00 0.00 76 1014.8
20180619151955 84 205 2.0 8.0 0.00 0.00 0.00 75 1014.8
20180619151453 85 199 1.0 8.0 0.00 0.00 0.00 76 1014.9
20180619150953 84 199 1.0 10.0 0.00 0.00 0.00 78 1014.9
20180619150454 84 205 2.0 10.0 0.00 0.00 0.00 77 1015.0
20180619145953 84 212 1.0 10.0 0.00 0.00 0.00 76 1015.1
20180619145453 84 211 0.0 6.0 0.00 0.00 0.00 76 1015.1
20180619144954 84 205 1.0 8.0 0.00 0.00 0.00 77 1015.1
20180619144453 83 205 1.0 8.0 0.00 0.00 0.00 77 1015.2
20180619143953 83 201 1.0 9.0 0.00 0.00 0.00 79 1015.2
20180619143454 83 198 1.0 9.0 0.00 0.00 0.00 77 1015.2
20180619142953 83 210 0.0 7.0 0.00 0.00 0.00 79 1015.3
20180619142453 82 216 0.0 7.0 0.00 0.00 0.00 78 1015.3
20180619141954 82 227 0.0 6.0 0.00 0.00 0.00 78 1015.3
20180619141453 82 204 1.0 9.0 0.00 0.00 0.00 80 1015.4
20180619140953 82 206 2.0 9.0 0.00 0.00 0.00 80 1015.5
20180619140455 81 217 1.0 7.0 0.00 0.00 0.00 80 1015.5
20180619135953 81 213 2.0 9.0 0.00 0.00 0.00 80 1015.6
20180619135453 81 211 2.0 10.0 0.00 0.00 0.00 80 1015.7
20180619134955 81 214 2.0 10.0 0.00 0.00 0.00 81 1015.8
20180619134453 80 216 2.0 9.0 0.00 0.00 0.00 81 1015.7
20180619133953 80 214 1.0 8.0 0.00 0.00 0.00 82 1015.6
20180619133455 80 197 1.0 7.0 0.00 0.00 0.00 82 1015.6
20180619132953 79 199 2.0 9.0 0.00 0.00 0.00 82 1015.7
20180619132454 79 205 2.0 9.0 0.00 0.00 0.00 82 1015.7
20180619131955 79 207 3.0 10.0 0.00 0.00 0.00 82 1015.7
20180619131453 79 206 3.0 11.0 0.00 0.00 0.00 82 1015.6
20180619130953 79 204 2.0 11.0 0.00 0.00 0.00 83 1015.6
20180619130455 79 202 3.0 13.0 0.00 0.00 0.00 83 1015.5
20180619125952 78 202 3.0 13.0 0.00 0.00 0.00 82 1015.5
20180619125453 78 202 3.0 13.0 0.00 0.00 0.00 84 1015.5
20180619124954 78 202 4.0 13.0 0.00 0.00 0.00 84 1015.5
20180619124453 78 200 4.0 10.0 0.00 0.00 0.00 84 1015.6
20180619123952 78 199 4.0 13.0 0.00 0.00 0.00 85 1015.6
20180619123454 77 199 5.0 13.0 0.00 0.00 0.00 84 1015.6
20180619122953 77 197 4.0 11.0 0.00 0.00 0.00 85 1015.6
20180619122453 77 200 4.0 8.0 0.00 0.00 0.00 86 1015.5
20180619121955 77 200 5.0 9.0 0.00 0.00 0.00 86 1015.6
20180619121453 76 197 5.0 9.0 0.00 0.00 0.00 86 1015.6
20180619120953 76 195 5.0 9.0 0.00 0.00 0.00 86 1015.6
20180619120455 76 197 5.0 10.0 0.00 0.00 0.00 86 1015.5
20180619115953 76 199 6.0 10.0 0.00 0.00 0.00 87 1015.6
20180619115453 76 198 6.0 11.0 0.00 0.00 0.00 87 1015.6
20180619114954 75 197 3.0 11.0 0.00 0.00 0.00 87 1015.7
20180619114453 75 0 0.0 0.0 0.00 0.00 0.00 87 1015.6
20180619113953 75 0 0.0 0.0 0.00 0.00 0.00 87 1015.6
20180619113454 75 0 0.0 0.0 0.00 0.00 0.00 87 1015.5
20180619112953 75 0 0.0 0.0 0.00 0.00 0.00 87 1015.3
20180619112453 75 0 0.0 0.0 0.00 0.00 0.00 88 1015.3
20180619111954 75 0 0.0 0.0 0.00 0.00 0.00 88 1015.4
20180619111452 74 0 0.0 0.0 0.00 0.00 0.00 88 1015.5
20180619110953 74 0 0.0 0.0 0.00 0.00 0.00 88 1015.3
20180619110455 74 0 0.0 0.0 0.00 0.00 0.00 88 1015.3
20180619105953 74 0 0.0 0.0 0.00 0.00 0.00 88 1015.3
20180619105453 74 0 0.0 0.0 0.00 0.00 0.00 88 1015.3
20180619104955 74 0 0.0 0.0 0.00 0.00 0.00 88 1015.2
20180619104453 74 0 0.0 0.0 0.00 0.00 0.00 88 1015.2
20180619103953 74 0 0.0 0.0 0.00 0.00 0.00 88 1015.2
20180619103454 74 0 0.0 0.0 0.00 0.00 0.00 88 1015.2
20180619102953 75 0 0.0 0.0 0.00 0.00 0.00 88 1015.1
20180619102453 75 0 0.0 0.0 0.00 0.00 0.00 88 1015.0
20180619101954 75 0 0.0 0.0 0.00 0.00 0.00 88 1015.0
20180619101453 74 0 0.0 0.0 0.00 0.00 0.00 88 1014.9
20180619100953 74 0 0.0 0.0 0.00 0.00 0.00 88 1014.8
20180619100455 75 0 0.0 0.0 0.00 0.00 0.00 87 1014.8
20180619095953 75 0 0.0 0.0 0.00 0.00 0.00 87 1014.8
20180619095452 75 0 0.0 0.0 0.00 0.00 0.00 87 1014.7
20180619094954 75 0 0.0 0.0 0.00 0.00 0.00 87 1014.7
20180619094452 75 0 0.0 0.0 0.00 0.00 0.00 86 1014.7
20180619093953 75 0 0.0 0.0 0.00 0.00 0.00 87 1014.7
20180619093455 75 0 0.0 0.0 0.00 0.00 0.00 87 1014.7
20180619092953 76 0 0.0 0.0 0.00 0.00 0.00 86 1014.7
20180619092452 76 0 0.0 0.0 0.00 0.00 0.00 86 1014.7
20180619091455 76 0 0.0 0.0 0.00 0.00 0.00 86 1014.6
20180619090953 76 0 0.0 0.0 0.00 0.00 0.00 86 1014.5
20180619090454 76 0 0.0 0.0 0.00 0.00 0.00 86 1014.5
20180619085953 76 0 0.0 0.0 0.00 0.00 0.00 86 1014.6
20180619085453 76 0 0.0 0.0 0.00 0.00 0.00 86 1014.6
20180619084954 76 0 0.0 0.0 0.00 0.00 0.00 86 1014.6
20180619084453 76 0 0.0 0.0 0.00 0.00 0.00 86 1014.5
20180619083952 76 0 0.0 0.0 0.00 0.00 0.00 86 1014.5
20180619083454 76 0 0.0 0.0 0.00 0.00 0.00 86 1014.5
20180619082952 76 0 0.0 0.0 0.00 0.00 0.00 85 1014.5
20180619082452 76 0 0.0 0.0 0.00 0.00 0.00 85 1014.6
20180619081955 76 0 0.0 0.0 0.00 0.00 0.00 85 1014.6
20180619081453 76 0 0.0 0.0 0.00 0.00 0.00 85 1014.6
20180619080953 76 0 0.0 0.0 0.00 0.00 0.00 85 1014.7
20180619080454 76 0 0.0 0.0 0.00 0.00 0.00 85 1014.7
20180619075952 76 0 0.0 0.0 0.00 0.00 0.00 85 1014.7
20180619075452 76 0 0.0 0.0 0.00 0.00 0.00 85 1014.8
20180619074954 77 0 0.0 0.0 0.00 0.00 0.00 85 1014.8
20180619074452 77 0 0.0 0.0 0.00 0.00 0.00 85 1014.8
20180619073953 77 0 0.0 0.0 0.00 0.00 0.00 85 1014.9
20180619073455 77 0 0.0 0.0 0.00 0.00 0.00 85 1014.8
20180619072953 77 0 0.0 0.0 0.00 0.00 0.00 85 1014.8
20180619072452 77 0 0.0 0.0 0.00 0.00 0.00 84 1014.9
20180619071954 77 0 0.0 0.0 0.00 0.00 0.00 84 1015.0
20180619071453 77 0 0.0 0.0 0.00 0.00 0.00 84 1015.1
20180619070953 77 0 0.0 0.0 0.00 0.00 0.00 84 1015.1
20180619070455 77 0 0.0 0.0 0.00 0.00 0.00 84 1015.1
20180619065953 77 0 0.0 0.0 0.00 0.00 0.00 84 1015.1
20180619065452 78 0 0.0 0.0 0.00 0.00 0.00 84 1015.1
20180619064954 78 0 0.0 0.0 0.00 0.00 0.00 83 1015.1
20180619064453 78 0 0.0 0.0 0.00 0.00 0.00 83 1015.1
20180619063952 78 0 0.0 0.0 0.00 0.00 0.00 83 1015.0
20180619063455 78 0 0.0 0.0 0.00 0.00 0.00 83 1015.0
20180619062952 78 0 0.0 0.0 0.00 0.00 0.00 83 1015.1
20180619062453 78 0 0.0 0.0 0.00 0.00 0.00 83 1015.2
20180619061955 78 0 0.0 0.0 0.00 0.00 0.00 82 1015.3
20180619061453 78 0 0.0 0.0 0.00 0.00 0.00 82 1015.4
20180619060953 78 0 0.0 0.0 0.00 0.00 0.00 82 1015.4
20180619060454 79 0 0.0 0.0 0.00 0.00 0.00 82 1015.5
20180619055952 79 0 0.0 0.0 0.00 0.00 0.00 82 1015.5
20180619055453 79 0 0.0 0.0 0.00 0.00 0.00 82 1015.6
20180619054954 79 0 0.0 0.0 0.00 0.00 0.00 82 1015.6
20180619054453 79 0 0.0 0.0 0.00 0.00 0.00 82 1015.6
20180619053952 79 0 0.0 0.0 0.00 0.00 0.00 81 1015.5
20180619053454 79 0 0.0 0.0 0.00 0.00 0.00 81 1015.6
20180619052953 79 0 0.0 0.0 0.00 0.00 0.00 81 1015.6
20180619052453 79 0 0.0 0.0 0.00 0.00 0.00 81 1015.6
20180619051955 79 0 0.0 0.0 0.00 0.00 0.00 81 1015.7
20180619051453 79 0 0.0 0.0 0.00 0.00 0.00 80 1015.7
20180619050952 79 0 0.0 0.0 0.00 0.00 0.00 80 1015.6
20180619050455 79 0 0.0 0.0 0.00 0.00 0.00 80 1015.7
20180619045952 80 0 0.0 0.0 0.00 0.00 0.00 79 1015.6
20180619045452 80 0 0.0 0.0 0.00 0.00 0.00 79 1015.7
20180619044954 80 0 0.0 0.0 0.00 0.00 0.00 79 1015.8
20180619044453 80 0 0.0 0.0 0.00 0.00 0.00 79 1015.8
20180619043953 80 0 0.0 0.0 0.00 0.00 0.00 79 1015.8
20180619043454 80 0 0.0 0.0 0.00 0.00 0.00 79 1015.9
20180619042953 80 0 0.0 0.0 0.00 0.00 0.00 79 1015.8
20180619042452 80 0 0.0 0.0 0.00 0.00 0.00 79 1015.8
20180619041954 80 0 0.0 0.0 0.00 0.00 0.00 79 1015.8
20180619041452 80 0 0.0 0.0 0.00 0.00 0.00 78 1015.7
20180619040953 80 0 0.0 0.0 0.00 0.00 0.00 78 1015.8
20180619040455 80 0 0.0 0.0 0.00 0.00 0.00 78 1015.8
20180619035953 80 0 0.0 0.0 0.00 0.00 0.00 78 1015.8
20180619035452 80 0 0.0 0.0 0.00 0.00 0.00 78 1015.8
20180619034954 80 0 0.0 0.0 0.00 0.00 0.00 78 1015.8
20180619034452 80 0 0.0 0.0 0.00 0.00 0.00 78 1015.8
20180619033952 80 0 0.0 0.0 0.00 0.00 0.00 78 1015.9
20180619033455 80 0 0.0 0.0 0.00 0.00 0.00 78 1015.9
20180619032953 81 0 0.0 0.0 0.00 0.00 0.00 78 1015.9
20180619032452 81 0 0.0 0.0 0.00 0.00 0.00 78 1015.9
20180619031954 81 0 0.0 0.0 0.00 0.00 0.00 77 1015.8
20180619031453 81 0 0.0 0.0 0.00 0.00 0.00 77 1015.8
20180619030953 82 0 0.0 0.0 0.00 0.00 0.00 77 1015.8
20180619030454 82 0 0.0 0.0 0.00 0.00 0.00 77 1015.8
20180619025952 82 0 0.0 0.0 0.00 0.00 0.00 77 1015.8
20180619025453 82 0 0.0 0.0 0.00 0.00 0.00 77 1015.7
20180619024954 82 0 0.0 0.0 0.00 0.00 0.00 77 1015.6
20180619024453 82 0 0.0 0.0 0.00 0.00 0.00 77 1015.5
20180619023953 82 0 0.0 0.0 0.00 0.00 0.00 77 1015.4
20180619023454 82 0 0.0 0.0 0.00 0.00 0.00 76 1015.4
20180619022953 82 0 0.0 0.0 0.00 0.00 0.00 76 1015.3
20180619022452 83 0 0.0 0.0 0.00 0.00 0.00 76 1015.2
20180619021954 83 0 0.0 0.0 0.00 0.00 0.00 75 1015.2
20180619021453 83 0 0.0 0.0 0.00 0.00 0.00 75 1015.2
20180619020953 83 0 0.0 0.0 0.00 0.00 0.00 75 1015.0